sensor_id;sensor_type;location;lat;lon;timestamp;pressure;altitude;pressure_sealevel;temperature;humidity
57600;BME280;43426;43.594;24.334;2023-07-31T00:00:14;100565.34;;;21.72;100.00
57600;BME280;43426;43.594;24.334;2023-07-31T00:02:40;100571.34;;;21.86;100.00
57600;BME280;43426;43.594;24.334;2023-07-31T00:05:05;100574.69;;;21.88;100.00
57600;BME280;43426;43.594;24.334;2023-07-31T00:07:32;100566.63;;;21.81;100.00
57600;BME280;43426;43.594;24.334;2023-07-31T00:09:57;100569.94;;;21.83;100.00
57600;BME280;43426;43.594;24.334;2023-07-31T00:12:23;100553.19;;;21.85;100.00
57600;BME280;43426;43.594;24.334;2023-07-31T00:14:48;100554.34;;;21.89;100.00
57600;BME280;43426;43.594;24.334;2023-07-31T00:17:14;100550.69;;;21.83;100.00
57600;BME280;43426;43.594;24.334;2023-07-31T00:19:39;100540.22;;;21.80;100.00
57600;BME280;43426;43.594;24.334;2023-07-31T00:22:05;100539.16;;;21.81;100.00
57600;BME280;43426;43.594;24.334;2023-07-31T00:24:30;100540.97;;;21.92;100.00
57600;BME280;43426;43.594;24.334;2023-07-31T00:26:55;100537.19;;;21.99;100.00
57600;BME280;43426;43.594;24.334;2023-07-31T00:29:20;100532.38;;;21.89;100.00
57600;BME280;43426;43.594;24.334;2023-07-31T00:31:46;100527.31;;;21.81;100.00
57600;BME280;43426;43.594;24.334;2023-07-31T00:34:11;100525.72;;;21.85;100.00
57600;BME280;43426;43.594;24.334;2023-07-31T00:36:36;100528.31;;;21.74;100.00
57600;BME280;43426;43.594;24.334;2023-07-31T00:39:02;100528.06;;;21.76;100.00
57600;BME280;43426;43.594;24.334;2023-07-31T00:41:27;100522.50;;;21.71;100.00
57600;BME280;43426;43.594;24.334;2023-07-31T00:43:52;100524.66;;;21.69;100.00
57600;BME280;43426;43.594;24.334;2023-07-31T00:46:17;100513.19;;;21.72;100.00
57600;BME280;43426;43.594;24.334;2023-07-31T00:48:43;100504.63;;;21.68;100.00
57600;BME280;43426;43.594;24.334;2023-07-31T00:51:08;100499.63;;;21.65;100.00
57600;BME280;43426;43.594;24.334;2023-07-31T00:53:34;100505.28;;;21.58;100.00
57600;BME280;43426;43.594;24.334;2023-07-31T00:55:59;100508.19;;;21.69;100.00
57600;BME280;43426;43.594;24.334;2023-07-31T00:58:25;100503.44;;;21.81;100.00
57600;BME280;43426;43.594;24.334;2023-07-31T01:00:50;100500.63;;;21.59;100.00
57600;BME280;43426;43.594;24.334;2023-07-31T01:03:16;100499.94;;;21.52;100.00
57600;BME280;43426;43.594;24.334;2023-07-31T01:08:41;100497.63;;;21.60;100.00
57600;BME280;43426;43.594;24.334;2023-07-31T01:11:29;100503.63;;;21.57;100.00
57600;BME280;43426;43.594;24.334;2023-07-31T01:13:54;100504.59;;;21.51;100.00
57600;BME280;43426;43.594;24.334;2023-07-31T01:16:19;100500.78;;;21.52;100.00
57600;BME280;43426;43.594;24.334;2023-07-31T01:18:44;100499.94;;;21.52;100.00
57600;BME280;43426;43.594;24.334;2023-07-31T01:26:21;100511.59;;;21.42;100.00
57600;BME280;43426;43.594;24.334;2023-07-31T01:31:25;100506.00;;;21.37;100.00
57600;BME280;43426;43.594;24.334;2023-07-31T01:33:54;100512.06;;;21.39;100.00
57600;BME280;43426;43.594;24.334;2023-07-31T01:36:21;100512.31;;;21.37;100.00
57600;BME280;43426;43.594;24.334;2023-07-31T01:38:46;100515.34;;;21.53;100.00
57600;BME280;43426;43.594;24.334;2023-07-31T01:41:12;100514.56;;;21.40;100.00
57600;BME280;43426;43.594;24.334;2023-07-31T01:43:38;100522.63;;;21.47;100.00
57600;BME280;43426;43.594;24.334;2023-07-31T01:46:03;100516.06;;;21.31;100.00
57600;BME280;43426;43.594;24.334;2023-07-31T01:48:28;100513.22;;;21.43;100.00
57600;BME280;43426;43.594;24.334;2023-07-31T01:50:54;100518.16;;;21.41;100.00
57600;BME280;43426;43.594;24.334;2023-07-31T01:53:19;100514.50;;;21.35;100.00
57600;BME280;43426;43.594;24.334;2023-07-31T01:55:44;100514.81;;;21.39;100.00
57600;BME280;43426;43.594;24.334;2023-07-31T01:58:09;100513.22;;;21.43;100.00
57600;BME280;43426;43.594;24.334;2023-07-31T02:00:35;100506.25;;;21.35;100.00
57600;BME280;43426;43.594;24.334;2023-07-31T02:03:00;100506.09;;;21.42;100.00
57600;BME280;43426;43.594;24.334;2023-07-31T02:05:25;100507.09;;;21.36;100.00
57600;BME280;43426;43.594;24.334;2023-07-31T02:07:51;100506.50;;;21.34;100.00
57600;BME280;43426;43.594;24.334;2023-07-31T02:10:16;100508.25;;;21.40;100.00
57600;BME280;43426;43.594;24.334;2023-07-31T02:12:41;100510.44;;;21.55;100.00
57600;BME280;43426;43.594;24.334;2023-07-31T02:15:07;100510.69;;;21.53;100.00
57600;BME280;43426;43.594;24.334;2023-07-31T02:17:32;100500.38;;;21.60;100.00
57600;BME280;43426;43.594;24.334;2023-07-31T02:19:57;100510.59;;;21.65;100.00
57600;BME280;43426;43.594;24.334;2023-07-31T02:22:23;100511.09;;;21.45;100.00
57600;BME280;43426;43.594;24.334;2023-07-31T02:24:48;100512.75;;;21.46;100.00
57600;BME280;43426;43.594;24.334;2023-07-31T02:27:13;100518.53;;;21.62;100.00
57600;BME280;43426;43.594;24.334;2023-07-31T02:29:38;100520.09;;;21.57;100.00
57600;BME280;43426;43.594;24.334;2023-07-31T02:32:04;100519.88;;;21.47;100.00
57600;BME280;43426;43.594;24.334;2023-07-31T02:34:29;100522.31;;;21.43;100.00
57600;BME280;43426;43.594;24.334;2023-07-31T02:36:54;100515.78;;;21.62;100.00
57600;BME280;43426;43.594;24.334;2023-07-31T02:39:20;100528.72;;;21.49;100.00
57600;BME280;43426;43.594;24.334;2023-07-31T02:41:45;100529.22;;;21.46;100.00
57600;BME280;43426;43.594;24.334;2023-07-31T02:44:10;100525.91;;;21.61;100.00
57600;BME280;43426;43.594;24.334;2023-07-31T02:46:38;100533.31;;;21.60;100.00
57600;BME280;43426;43.594;24.334;2023-07-31T02:49:03;100529.41;;;21.73;100.00
57600;BME280;43426;43.594;24.334;2023-07-31T02:51:29;100533.97;;;21.68;100.00
57600;BME280;43426;43.594;24.334;2023-07-31T02:53:54;100528.50;;;21.68;100.00
57600;BME280;43426;43.594;24.334;2023-07-31T02:56:19;100519.19;;;21.69;100.00
57600;BME280;43426;43.594;24.334;2023-07-31T02:58:45;100523.31;;;21.88;100.00
57600;BME280;43426;43.594;24.334;2023-07-31T03:01:10;100524.13;;;21.89;100.00
57600;BME280;43426;43.594;24.334;2023-07-31T03:03:35;100517.59;;;21.73;100.00
57600;BME280;43426;43.594;24.334;2023-07-31T03:06:00;100522.69;;;21.64;100.00
57600;BME280;43426;43.594;24.334;2023-07-31T03:08:26;100521.91;;;21.69;100.00
57600;BME280;43426;43.594;24.334;2023-07-31T03:10:51;100527.84;;;21.60;100.00
57600;BME280;43426;43.594;24.334;2023-07-31T03:13:16;100526.75;;;21.62;100.00
57600;BME280;43426;43.594;24.334;2023-07-31T03:15:42;100530.84;;;21.59;100.00
57600;BME280;43426;43.594;24.334;2023-07-31T03:18:07;100537.75;;;21.62;100.00
57600;BME280;43426;43.594;24.334;2023-07-31T03:20:32;100541.91;;;21.64;100.00
57600;BME280;43426;43.594;24.334;2023-07-31T03:22:58;100534.25;;;21.66;100.00
57600;BME280;43426;43.594;24.334;2023-07-31T03:25:23;100538.91;;;21.66;100.00
57600;BME280;43426;43.594;24.334;2023-07-31T03:27:48;100539.06;;;21.76;100.00
57600;BME280;43426;43.594;24.334;2023-07-31T03:30:14;100543.22;;;21.79;100.00
57600;BME280;43426;43.594;24.334;2023-07-31T03:32:39;100546.38;;;21.87;100.00
57600;BME280;43426;43.594;24.334;2023-07-31T03:35:04;100543.78;;;21.81;100.00
57600;BME280;43426;43.594;24.334;2023-07-31T03:37:30;100543.22;;;21.79;100.00
57600;BME280;43426;43.594;24.334;2023-07-31T03:39:55;100549.47;;;21.74;100.00
57600;BME280;43426;43.594;24.334;2023-07-31T03:42:23;100558.28;;;21.76;100.00
57600;BME280;43426;43.594;24.334;2023-07-31T03:44:49;100560.22;;;21.75;100.00
57600;BME280;43426;43.594;24.334;2023-07-31T03:47:16;100553.03;;;21.74;100.00
57600;BME280;43426;43.594;24.334;2023-07-31T03:49:41;100555.22;;;21.72;100.00
57600;BME280;43426;43.594;24.334;2023-07-31T03:52:07;100538.50;;;21.74;100.00
57600;BME280;43426;43.594;24.334;2023-07-31T03:54:32;100548.47;;;21.63;100.00
57600;BME280;43426;43.594;24.334;2023-07-31T03:56:58;100554.88;;;21.69;100.00
57600;BME280;43426;43.594;24.334;2023-07-31T03:59:23;100556.13;;;21.61;100.00
57600;BME280;43426;43.594;24.334;2023-07-31T04:01:48;100558.44;;;21.69;100.00
57600;BME280;43426;43.594;24.334;2023-07-31T04:04:14;100554.38;;;21.72;100.00
57600;BME280;43426;43.594;24.334;2023-07-31T04:06:39;100556.03;;;21.73;100.00
57600;BME280;43426;43.594;24.334;2023-07-31T04:09:04;100560.59;;;21.84;100.00
57600;BME280;43426;43.594;24.334;2023-07-31T04:11:29;100559.84;;;21.89;100.00
57600;BME280;43426;43.594;24.334;2023-07-31T04:13:55;100560.44;;;21.91;100.00
57600;BME280;43426;43.594;24.334;2023-07-31T04:16:22;100565.69;;;21.92;100.00
57600;BME280;43426;43.594;24.334;2023-07-31T04:18:47;100566.81;;;22.14;100.00
57600;BME280;43426;43.594;24.334;2023-07-31T04:21:13;100571.25;;;21.98;100.00
57600;BME280;43426;43.594;24.334;2023-07-31T04:23:38;100562.13;;;21.92;100.00
57600;BME280;43426;43.594;24.334;2023-07-31T04:26:03;100577.84;;;21.97;100.00
57600;BME280;43426;43.594;24.334;2023-07-31T04:28:29;100575.97;;;22.19;100.00
57600;BME280;43426;43.594;24.334;2023-07-31T04:30:56;100575.13;;;22.19;100.00
57600;BME280;43426;43.594;24.334;2023-07-31T04:33:21;100575.81;;;22.09;100.00
57600;BME280;43426;43.594;24.334;2023-07-31T04:35:50;100576.97;;;22.13;100.00
57600;BME280;43426;43.594;24.334;2023-07-31T04:38:17;100578.41;;;22.16;100.00
57600;BME280;43426;43.594;24.334;2023-07-31T04:40:42;100574.31;;;22.18;100.00
57600;BME280;43426;43.594;24.334;2023-07-31T04:43:08;100570.53;;;22.24;100.00
57600;BME280;43426;43.594;24.334;2023-07-31T04:45:33;100573.94;;;22.32;100.00
57600;BME280;43426;43.594;24.334;2023-07-31T04:47:58;100584.00;;;22.43;100.00
57600;BME280;43426;43.594;24.334;2023-07-31T04:50:23;100580.16;;;22.61;100.00
57600;BME280;43426;43.594;24.334;2023-07-31T04:52:49;100572.34;;;22.75;98.36
57600;BME280;43426;43.594;24.334;2023-07-31T04:55:14;100566.50;;;22.71;100.00
57600;BME280;43426;43.594;24.334;2023-07-31T04:57:40;100575.69;;;23.04;96.67
57600;BME280;43426;43.594;24.334;2023-07-31T05:00:05;100568.03;;;23.34;96.29
57600;BME280;43426;43.594;24.334;2023-07-31T05:02:31;100572.88;;;23.54;93.92
57600;BME280;43426;43.594;24.334;2023-07-31T05:04:56;100569.81;;;23.83;89.05
57600;BME280;43426;43.594;24.334;2023-07-31T05:07:22;100578.97;;;23.88;88.24
57600;BME280;43426;43.594;24.334;2023-07-31T05:09:47;100580.56;;;23.84;88.10
57600;BME280;43426;43.594;24.334;2023-07-31T05:12:16;100579.94;;;23.72;88.50
57600;BME280;43426;43.594;24.334;2023-07-31T05:14:41;100583.78;;;23.71;88.84
57600;BME280;43426;43.594;24.334;2023-07-31T05:17:09;100587.38;;;23.71;85.72
57600;BME280;43426;43.594;24.334;2023-07-31T05:19:34;100584.81;;;23.59;86.93
57600;BME280;43426;43.594;24.334;2023-07-31T05:21:59;100588.31;;;23.55;85.97
57600;BME280;43426;43.594;24.334;2023-07-31T05:24:25;100590.00;;;23.56;84.90
57600;BME280;43426;43.594;24.334;2023-07-31T05:26:50;100588.06;;;23.56;84.88
57600;BME280;43426;43.594;24.334;2023-07-31T05:29:15;100585.69;;;23.65;83.79
57600;BME280;43426;43.594;24.334;2023-07-31T05:31:41;100588.59;;;23.53;85.44
57600;BME280;43426;43.594;24.334;2023-07-31T05:34:07;100589.94;;;23.51;86.43
57600;BME280;43426;43.594;24.334;2023-07-31T05:36:32;100586.31;;;23.45;84.37
57600;BME280;43426;43.594;24.334;2023-07-31T05:38:57;100597.44;;;23.28;85.80
57600;BME280;43426;43.594;24.334;2023-07-31T05:41:22;100583.63;;;23.23;86.05
57600;BME280;43426;43.594;24.334;2023-07-31T05:43:48;100597.91;;;23.20;86.43
57600;BME280;43426;43.594;24.334;2023-07-31T05:46:13;100600.47;;;23.04;84.47
57600;BME280;43426;43.594;24.334;2023-07-31T05:48:39;100584.69;;;22.94;84.42
57600;BME280;43426;43.594;24.334;2023-07-31T05:51:04;100593.22;;;22.98;85.05
57600;BME280;43426;43.594;24.334;2023-07-31T05:53:29;100594.56;;;22.95;85.19
57600;BME280;43426;43.594;24.334;2023-07-31T05:55:54;100592.78;;;22.84;84.84
57600;BME280;43426;43.594;24.334;2023-07-31T05:58:20;100595.81;;;22.83;86.67
57600;BME280;43426;43.594;24.334;2023-07-31T06:00:45;100596.66;;;22.83;86.28
57600;BME280;43426;43.594;24.334;2023-07-31T06:03:11;100604.75;;;22.73;86.98
57600;BME280;43426;43.594;24.334;2023-07-31T06:05:36;100594.19;;;22.87;83.71
57600;BME280;43426;43.594;24.334;2023-07-31T06:08:04;100601.75;;;22.96;83.60
57600;BME280;43426;43.594;24.334;2023-07-31T06:10:29;100605.44;;;23.07;81.82
57600;BME280;43426;43.594;24.334;2023-07-31T06:12:54;100596.09;;;23.31;82.08
57600;BME280;43426;43.594;24.334;2023-07-31T06:15:20;100598.59;;;23.64;81.29
57600;BME280;43426;43.594;24.334;2023-07-31T06:17:45;100592.91;;;24.04;79.76
57600;BME280;43426;43.594;24.334;2023-07-31T06:20:10;100595.03;;;24.39;76.74
57600;BME280;43426;43.594;24.334;2023-07-31T06:22:36;100592.19;;;24.72;74.25
57600;BME280;43426;43.594;24.334;2023-07-31T06:25:01;100595.56;;;24.89;73.04
57600;BME280;43426;43.594;24.334;2023-07-31T06:27:26;100600.06;;;25.11;73.28
57600;BME280;43426;43.594;24.334;2023-07-31T06:29:51;100595.06;;;25.13;69.85
57600;BME280;43426;43.594;24.334;2023-07-31T06:32:17;100587.91;;;25.22;71.99
57600;BME280;43426;43.594;24.334;2023-07-31T06:34:42;100598.75;;;25.34;70.92
57600;BME280;43426;43.594;24.334;2023-07-31T06:37:07;100589.66;;;25.64;70.73
57600;BME280;43426;43.594;24.334;2023-07-31T06:39:32;100591.31;;;25.76;68.03
57600;BME280;43426;43.594;24.334;2023-07-31T06:41:58;100596.28;;;25.58;68.86
57600;BME280;43426;43.594;24.334;2023-07-31T06:44:23;100597.41;;;25.67;68.60
57600;BME280;43426;43.594;24.334;2023-07-31T06:46:48;100595.75;;;25.72;66.46
57600;BME280;43426;43.594;24.334;2023-07-31T06:49:14;100591.88;;;25.93;67.10
57600;BME280;43426;43.594;24.334;2023-07-31T06:51:42;100603.47;;;25.95;66.02
57600;BME280;43426;43.594;24.334;2023-07-31T06:54:10;100601.28;;;25.56;64.42
57600;BME280;43426;43.594;24.334;2023-07-31T06:56:35;100605.66;;;25.37;66.89
57600;BME280;43426;43.594;24.334;2023-07-31T06:59:00;100608.38;;;25.26;66.02
57600;BME280;43426;43.594;24.334;2023-07-31T07:01:25;100603.63;;;25.06;67.17
57600;BME280;43426;43.594;24.334;2023-07-31T07:03:51;100603.09;;;25.09;66.86
57600;BME280;43426;43.594;24.334;2023-07-31T07:06:17;100594.31;;;25.43;67.53
57600;BME280;43426;43.594;24.334;2023-07-31T07:08:42;100592.69;;;25.73;66.63
57600;BME280;43426;43.594;24.334;2023-07-31T07:11:11;100591.84;;;25.78;67.51
57600;BME280;43426;43.594;24.334;2023-07-31T07:13:36;100600.97;;;25.83;63.96
57600;BME280;43426;43.594;24.334;2023-07-31T07:16:03;100604.84;;;25.88;64.23
57600;BME280;43426;43.594;24.334;2023-07-31T07:18:29;100598.50;;;25.72;65.05
57600;BME280;43426;43.594;24.334;2023-07-31T07:20:54;100607.88;;;25.55;64.43
57600;BME280;43426;43.594;24.334;2023-07-31T07:23:19;100616.44;;;25.38;65.32
57600;BME280;43426;43.594;24.334;2023-07-31T07:25:45;100608.66;;;25.30;66.45
57600;BME280;43426;43.594;24.334;2023-07-31T07:28:11;100617.22;;;25.28;65.61
57600;BME280;43426;43.594;24.334;2023-07-31T07:30:36;100626.84;;;25.10;66.56
57600;BME280;43426;43.594;24.334;2023-07-31T07:33:02;100622.47;;;25.30;66.38
57600;BME280;43426;43.594;24.334;2023-07-31T07:35:27;100626.16;;;25.77;65.82
57600;BME280;43426;43.594;24.334;2023-07-31T07:37:52;100628.34;;;26.00;64.80
57600;BME280;43426;43.594;24.334;2023-07-31T07:40:18;100615.91;;;25.98;63.91
57600;BME280;43426;43.594;24.334;2023-07-31T07:42:44;100625.03;;;26.19;66.45
57600;BME280;43426;43.594;24.334;2023-07-31T07:45:09;100622.53;;;26.38;64.20
57600;BME280;43426;43.594;24.334;2023-07-31T07:47:34;100619.75;;;26.43;64.29
57600;BME280;43426;43.594;24.334;2023-07-31T07:50:00;100623.31;;;26.49;64.55
57600;BME280;43426;43.594;24.334;2023-07-31T07:52:27;100624.47;;;26.32;64.77
57600;BME280;43426;43.594;24.334;2023-07-31T07:54:53;100629.09;;;26.52;65.21
57600;BME280;43426;43.594;24.334;2023-07-31T07:57:18;100625.00;;;26.40;63.75
57600;BME280;43426;43.594;24.334;2023-07-31T07:59:43;100627.25;;;26.27;65.81
57600;BME280;43426;43.594;24.334;2023-07-31T08:02:09;100621.41;;;26.24;66.65
57600;BME280;43426;43.594;24.334;2023-07-31T08:04:36;100627.25;;;26.17;65.73
57600;BME280;43426;43.594;24.334;2023-07-31T08:07:01;100625.03;;;26.14;65.10
57600;BME280;43426;43.594;24.334;2023-07-31T08:09:27;100628.06;;;25.97;66.04
57600;BME280;43426;43.594;24.334;2023-07-31T08:11:52;100630.03;;;25.81;66.54
57600;BME280;43426;43.594;24.334;2023-07-31T08:14:17;100629.44;;;25.74;66.29
57600;BME280;43426;43.594;24.334;2023-07-31T08:16:43;100632.47;;;25.57;67.18
57600;BME280;43426;43.594;24.334;2023-07-31T08:19:10;100627.25;;;25.60;67.11
57600;BME280;43426;43.594;24.334;2023-07-31T08:21:36;100624.19;;;25.62;68.21
57600;BME280;43426;43.594;24.334;2023-07-31T08:24:01;100633.88;;;25.64;66.96
57600;BME280;43426;43.594;24.334;2023-07-31T08:26:26;100623.66;;;25.70;67.37
57600;BME280;43426;43.594;24.334;2023-07-31T08:28:52;100633.88;;;25.80;67.49
57600;BME280;43426;43.594;24.334;2023-07-31T08:31:17;100630.56;;;25.88;67.68
57600;BME280;43426;43.594;24.334;2023-07-31T08:33:43;100626.16;;;25.92;65.65
57600;BME280;43426;43.594;24.334;2023-07-31T08:36:08;100623.66;;;25.86;66.64
57600;BME280;43426;43.594;24.334;2023-07-31T08:38:33;100623.94;;;25.84;67.32
57600;BME280;43426;43.594;24.334;2023-07-31T08:40:59;100632.25;;;26.05;67.68
57600;BME280;43426;43.594;24.334;2023-07-31T08:43:28;100624.78;;;26.15;66.67
57600;BME280;43426;43.594;24.334;2023-07-31T08:45:53;100627.84;;;26.09;66.67
57600;BME280;43426;43.594;24.334;2023-07-31T08:48:22;100626.44;;;26.06;66.56
57600;BME280;43426;43.594;24.334;2023-07-31T08:50:48;100634.97;;;25.99;66.50
57600;BME280;43426;43.594;24.334;2023-07-31T08:53:13;100634.16;;;25.94;67.76
57600;BME280;43426;43.594;24.334;2023-07-31T08:55:38;100640.53;;;25.84;67.73
57600;BME280;43426;43.594;24.334;2023-07-31T08:58:05;100635.25;;;25.77;67.23
57600;BME280;43426;43.594;24.334;2023-07-31T09:00:31;100641.91;;;25.66;68.49
57600;BME280;43426;43.594;24.334;2023-07-31T09:05:22;100646.03;;;25.69;70.25
57600;BME280;43426;43.594;24.334;2023-07-31T09:07:48;100646.31;;;25.88;69.14
57600;BME280;43426;43.594;24.334;2023-07-31T09:10:14;100650.19;;;25.71;68.45
57600;BME280;43426;43.594;24.334;2023-07-31T09:12:42;100656.50;;;25.61;69.22
57600;BME280;43426;43.594;24.334;2023-07-31T09:15:07;100651.53;;;25.53;69.11
57600;BME280;43426;43.594;24.334;2023-07-31T09:17:34;100654.00;;;25.44;69.59
57600;BME280;43426;43.594;24.334;2023-07-31T09:22:46;100648.22;;;25.46;69.84
57600;BME280;43426;43.594;24.334;2023-07-31T09:25:23;100660.38;;;25.40;69.85
57600;BME280;43426;43.594;24.334;2023-07-31T09:27:57;100648.16;;;25.30;71.33
57600;BME280;43426;43.594;24.334;2023-07-31T09:30:23;100648.47;;;25.44;72.20
57600;BME280;43426;43.594;24.334;2023-07-31T09:32:49;100652.63;;;25.37;71.69
57600;BME280;43426;43.594;24.334;2023-07-31T09:35:19;100645.44;;;25.36;71.43
57600;BME280;43426;43.594;24.334;2023-07-31T09:37:52;100644.88;;;25.39;70.92
57600;BME280;43426;43.594;24.334;2023-07-31T09:40:30;100644.59;;;25.40;71.47
57600;BME280;43426;43.594;24.334;2023-07-31T09:42:57;100643.25;;;25.48;72.73
57600;BME280;43426;43.594;24.334;2023-07-31T09:45:25;100643.25;;;25.58;71.58
57600;BME280;43426;43.594;24.334;2023-07-31T09:47:54;100640.50;;;25.58;71.75
57600;BME280;43426;43.594;24.334;2023-07-31T09:50:22;100642.16;;;25.70;70.20
57600;BME280;43426;43.594;24.334;2023-07-31T09:52:47;100638.03;;;25.67;71.08
57600;BME280;43426;43.594;24.334;2023-07-31T09:55:13;100638.31;;;25.81;70.91
57600;BME280;43426;43.594;24.334;2023-07-31T09:57:39;100647.72;;;25.85;70.09
57600;BME280;43426;43.594;24.334;2023-07-31T10:00:06;100650.47;;;25.90;70.66
57600;BME280;43426;43.594;24.334;2023-07-31T10:02:34;100642.75;;;26.03;69.88
57600;BME280;43426;43.594;24.334;2023-07-31T10:04:59;100644.97;;;26.11;69.09
57600;BME280;43426;43.594;24.334;2023-07-31T10:07:26;100651.59;;;26.20;69.45
57600;BME280;43426;43.594;24.334;2023-07-31T10:09:53;100656.56;;;26.28;69.43
57600;BME280;43426;43.594;24.334;2023-07-31T10:12:19;100647.94;;;26.45;67.50
57600;BME280;43426;43.594;24.334;2023-07-31T10:14:47;100649.03;;;26.70;66.97
57600;BME280;43426;43.594;24.334;2023-07-31T10:17:12;100643.41;;;26.96;67.29
57600;BME280;43426;43.594;24.334;2023-07-31T10:19:38;100638.78;;;27.26;65.58
57600;BME280;43426;43.594;24.334;2023-07-31T10:22:04;100634.44;;;27.59;65.38
57600;BME280;43426;43.594;24.334;2023-07-31T10:24:29;100630.31;;;27.91;62.21
57600;BME280;43426;43.594;24.334;2023-07-31T10:26:57;100624.94;;;28.64;64.86
57600;BME280;43426;43.594;24.334;2023-07-31T10:29:22;100625.88;;;29.21;61.35
57600;BME280;43426;43.594;24.334;2023-07-31T10:31:49;100626.41;;;29.62;55.19
57600;BME280;43426;43.594;24.334;2023-07-31T10:34:16;100626.88;;;30.02;58.48
57600;BME280;43426;43.594;24.334;2023-07-31T10:36:42;100626.41;;;30.42;55.08
57600;BME280;43426;43.594;24.334;2023-07-31T10:39:32;100620.72;;;30.33;54.75
57600;BME280;43426;43.594;24.334;2023-07-31T10:41:52;100617.13;;;30.32;55.57
57600;BME280;43426;43.594;24.334;2023-07-31T10:44:18;100623.28;;;30.15;55.75
57600;BME280;43426;43.594;24.334;2023-07-31T10:46:45;100612.97;;;30.02;55.57
57600;BME280;43426;43.594;24.334;2023-07-31T10:49:10;100619.41;;;29.97;54.07
57600;BME280;43426;43.594;24.334;2023-07-31T10:51:46;100616.53;;;29.69;55.62
57600;BME280;43426;43.594;24.334;2023-07-31T10:54:13;100613.38;;;29.57;54.83
57600;BME280;43426;43.594;24.334;2023-07-31T10:56:39;100611.75;;;29.37;55.25
57600;BME280;43426;43.594;24.334;2023-07-31T10:59:04;100607.44;;;29.07;54.90
57600;BME280;43426;43.594;24.334;2023-07-31T11:01:49;100608.78;;;28.90;56.47
57600;BME280;43426;43.594;24.334;2023-07-31T11:04:15;100602.84;;;28.97;56.20
57600;BME280;43426;43.594;24.334;2023-07-31T11:06:55;100600.75;;;29.08;57.00
57600;BME280;43426;43.594;24.334;2023-07-31T11:09:20;100595.19;;;29.08;55.07
57600;BME280;43426;43.594;24.334;2023-07-31T11:11:45;100594.56;;;28.73;55.97
57600;BME280;43426;43.594;24.334;2023-07-31T11:14:11;100581.66;;;28.82;59.23
57600;BME280;43426;43.594;24.334;2023-07-31T11:16:36;100580.09;;;29.14;57.77
57600;BME280;43426;43.594;24.334;2023-07-31T11:19:02;100586.66;;;29.23;57.80
57600;BME280;43426;43.594;24.334;2023-07-31T11:21:27;100580.81;;;29.25;56.76
57600;BME280;43426;43.594;24.334;2023-07-31T11:23:55;100579.00;;;29.34;57.85
57600;BME280;43426;43.594;24.334;2023-07-31T11:26:21;100578.81;;;29.63;55.27
57600;BME280;43426;43.594;24.334;2023-07-31T11:28:48;100575.53;;;29.75;54.78
57600;BME280;43426;43.594;24.334;2023-07-31T11:31:13;100570.59;;;29.72;55.31
57600;BME280;43426;43.594;24.334;2023-07-31T11:33:39;100568.63;;;29.72;54.52
57600;BME280;43426;43.594;24.334;2023-07-31T11:36:04;100576.72;;;29.55;56.26
57600;BME280;43426;43.594;24.334;2023-07-31T11:38:31;100566.31;;;29.47;55.72
57600;BME280;43426;43.594;24.334;2023-07-31T11:40:57;100558.38;;;29.54;54.62
57600;BME280;43426;43.594;24.334;2023-07-31T11:43:23;100556.44;;;29.54;57.62
57600;BME280;43426;43.594;24.334;2023-07-31T11:45:55;100554.53;;;29.69;54.63
57600;BME280;43426;43.594;24.334;2023-07-31T11:50:46;100546.19;;;30.16;55.06
57600;BME280;43426;43.594;24.334;2023-07-31T11:53:11;100539.59;;;30.67;51.96
57600;BME280;43426;43.594;24.334;2023-07-31T11:55:39;100533.06;;;31.22;51.80
57600;BME280;43426;43.594;24.334;2023-07-31T11:58:04;100535.91;;;31.09;49.11
57600;BME280;43426;43.594;24.334;2023-07-31T12:00:30;100540.97;;;31.29;49.73
57600;BME280;43426;43.594;24.334;2023-07-31T12:02:55;100532.44;;;31.26;49.24
57600;BME280;43426;43.594;24.334;2023-07-31T12:05:21;100536.84;;;31.04;48.56
57600;BME280;43426;43.594;24.334;2023-07-31T12:07:51;100526.81;;;31.03;49.87
57600;BME280;43426;43.594;24.334;2023-07-31T12:10:26;100539.41;;;31.14;47.02
57600;BME280;43426;43.594;24.334;2023-07-31T12:13:05;100528.03;;;31.11;47.02
57600;BME280;43426;43.594;24.334;2023-07-31T12:15:37;100528.53;;;31.58;47.04
57600;BME280;43426;43.594;24.334;2023-07-31T12:18:06;100516.75;;;31.84;45.27
57600;BME280;43426;43.594;24.334;2023-07-31T12:20:33;100523.69;;;31.41;46.30
57600;BME280;43426;43.594;24.334;2023-07-31T12:22:58;100529.38;;;30.63;48.65
57600;BME280;43426;43.594;24.334;2023-07-31T12:25:33;100535.06;;;30.16;52.59
57600;BME280;43426;43.594;24.334;2023-07-31T12:28:05;100532.06;;;29.98;53.55
57600;BME280;43426;43.594;24.334;2023-07-31T12:30:34;100531.22;;;29.98;53.51
57600;BME280;43426;43.594;24.334;2023-07-31T12:33:18;100531.63;;;29.58;53.52
57600;BME280;43426;43.594;24.334;2023-07-31T12:35:44;100518.75;;;29.29;54.18
57600;BME280;43426;43.594;24.334;2023-07-31T12:38:10;100523.13;;;28.97;56.02
57600;BME280;43426;43.594;24.334;2023-07-31T12:40:37;100515.81;;;28.63;59.71
57600;BME280;43426;43.594;24.334;2023-07-31T12:43:03;100508.97;;;28.31;61.12
57600;BME280;43426;43.594;24.334;2023-07-31T12:45:28;100511.69;;;28.36;61.32
57600;BME280;43426;43.594;24.334;2023-07-31T12:47:54;100511.63;;;28.42;60.75